Santa Fe, NM

2:35 AM MST on January 22, 2017 (GMT -0700)
Santa Fe Municipal | | Change Station

Elev 6348 ft 35.62 °N, 106.09 °W | Updated 42 minutes ago

Mostly Cloudy
Mostly Cloudy
32 °F
Feels Like 28 °F
N
5
Wind Variable Wind from SSE

Today
High -- | Low -- °F
--% Chance of Precip.
Yesterday
High -- | Low -- °F
Precip. -- in
Pressure 29.85 in
Visibility 10.0 miles
Clouds Few 4300 ft
Mostly Cloudy 6000 ft
Windchill 28 °F
Dew Point 22 °F
Humidity 66%
Rainfall 0.00 in
Snow Depth Not available.
7:10 AM 5:22 PM
Waning Crescent, 28% visible
METAR KSAF 220853Z AUTO 15004KT 10SM FEW043 BKN060 00/M06 A2989 RMK AO2 SLP106 T00001056 51028
Pressure 29.85 in
Visibility 10.0 miles
Clouds Few 4300 ft
Mostly Cloudy 6000 ft
Windchill 28 °F
Dew Point 22 °F
Humidity 66%
Rainfall 0.00 in
Snow Depth Not available.
7:10 AM 5:22 PM
Waning Crescent, 28% visible
METAR KSAF 220853Z AUTO 15004KT 10SM FEW043 BKN060 00/M06 A2989 RMK AO2 SLP106 T00001056 51028

Get Your Daily Forecast Email!

Thanks for signing up!

Be on the lookout for a verification email in your inbox.

You'll start receiving the daily forecast at 8 AM.

×

10-Day Weather Forecast

Almanac

Astronomy

Jan. 22, 2017 Rise Set
Actual Time
Civil Twilight
Nautical Twilight
Astronomical Twilight
Moon
Length of Visible Light
Length of Day
Tomorrow will be .
, % of the Moon is Illuminated

Today's Extremes

State Highs State Lows

Community

WunderPhotos

Upload Photos

1,962,540 photos uploaded!

WunderBlog® & News

Nearby

Air Quality

  Air Quality AQ Index Pollutant
Not available.

Snow Depth

Station Depth Elevation

Earthquake Activity

City Distance Mag. Time & Date
Minimum magnitude displayed is 2.5.

Coastal Water Temperatures

Place Temperature

Stations

Nearby Weather Stations

Station Location Temp. Windchill Dew Point Humidity Wind Precip. Elev Updated Type
                   

Watches & Warnings

There are currently no watches in effect.